createdAt,value
2022-12-27T00:00:27.075Z,4.99
2022-12-27T00:02:53.755Z,5.00
2022-12-27T00:05:20.425Z,5.01
2022-12-27T00:07:47.013Z,4.98
2022-12-27T00:10:13.528Z,4.97
2022-12-27T00:12:40.069Z,4.99
2022-12-27T00:15:07.259Z,5.01
2022-12-27T00:17:33.768Z,5.03
2022-12-27T00:20:04.091Z,5.05
2022-12-27T00:22:35.026Z,5.09
2022-12-27T00:25:01.573Z,5.13
2022-12-27T00:27:28.023Z,5.17
2022-12-27T00:29:54.557Z,5.19
2022-12-27T00:32:21.095Z,5.21
2022-12-27T00:34:47.551Z,5.27
2022-12-27T00:37:14.077Z,5.34
2022-12-27T00:39:40.823Z,5.39
2022-12-27T00:42:07.340Z,5.42
2022-12-27T00:44:33.900Z,5.44
2022-12-27T00:47:00.306Z,5.49
2022-12-27T00:49:26.880Z,5.55
2022-12-27T00:51:53.419Z,5.61
2022-12-27T00:54:19.843Z,5.61
2022-12-27T00:56:46.336Z,5.58
2022-12-27T00:59:13.183Z,5.56
2022-12-27T01:01:40.739Z,5.57
2022-12-27T01:04:07.427Z,5.62
2022-12-27T01:06:35.548Z,5.67
2022-12-27T01:09:03.721Z,5.69
2022-12-27T01:11:31.062Z,5.73
2022-12-27T01:13:59.696Z,5.74
2022-12-27T01:16:28.087Z,5.75
2022-12-27T01:18:55.813Z,5.76
2022-12-27T01:21:24.657Z,5.73
2022-12-27T01:23:52.025Z,5.69
2022-12-27T01:26:21.581Z,5.62
2022-12-27T01:28:49.618Z,5.61
2022-12-27T01:31:18.856Z,5.58
2022-12-27T01:33:45.901Z,5.56
2022-12-27T01:36:16.083Z,5.55
2022-12-27T01:38:43.422Z,5.58
2022-12-27T01:41:24.465Z,5.61
2022-12-27T01:43:50.975Z,5.60
2022-12-27T01:46:18.221Z,5.59
2022-12-27T01:48:45.528Z,5.62
2022-12-27T01:51:12.354Z,5.66
2022-12-27T01:53:43.856Z,5.74
2022-12-27T01:56:29.422Z,5.91
2022-12-27T01:59:02.003Z,6.09
2022-12-27T02:01:34.334Z,6.26
2022-12-27T02:04:16.557Z,6.49
2022-12-27T02:06:43.739Z,6.65
2022-12-27T02:09:29.224Z,6.77
2022-12-27T02:11:57.472Z,6.88
2022-12-27T02:14:38.871Z,7.00
2022-12-27T02:17:07.731Z,7.16
2022-12-27T02:19:40.508Z,7.28
2022-12-27T02:22:30.675Z,7.45
2022-12-27T02:24:57.108Z,7.68
2022-12-27T02:27:41.363Z,7.83
2022-12-27T02:30:09.551Z,7.99
2022-12-27T02:32:44.277Z,8.07
2022-12-27T02:35:33.961Z,8.14
2022-12-27T02:38:06.958Z,8.28
2022-12-27T02:40:35.857Z,8.41
2022-12-27T02:43:03.089Z,8.45
2022-12-27T02:45:33.585Z,8.49
2022-12-27T02:48:00.268Z,8.56
2022-12-27T02:50:44.749Z,8.63
2022-12-27T02:53:23.102Z,8.73
2022-12-27T02:56:07.841Z,8.82
2022-12-27T02:59:02.424Z,8.89
2022-12-27T03:01:34.796Z,8.91
2022-12-27T03:04:23.163Z,8.91
2022-12-27T03:06:56.415Z,8.90
2022-12-27T03:09:30.237Z,8.86
2022-12-27T03:11:57.009Z,8.79
2022-12-27T03:14:35.597Z,8.77
2022-12-27T03:17:11.691Z,8.74
2022-12-27T03:19:50.732Z,8.71
2022-12-27T03:22:20.870Z,8.69
2022-12-27T03:24:47.560Z,8.65
2022-12-27T03:27:23.182Z,8.60
2022-12-27T03:29:53.235Z,8.56
2022-12-27T03:32:21.620Z,8.52
2022-12-27T03:34:55.660Z,8.52
2022-12-27T03:37:36.067Z,8.50
2022-12-27T03:40:27.620Z,8.52
2022-12-27T03:43:01.053Z,8.55
2022-12-27T03:45:47.880Z,8.58
2022-12-27T03:48:20.848Z,8.64
2022-12-27T03:50:53.647Z,8.66
2022-12-27T03:53:29.801Z,8.69
2022-12-27T03:55:56.914Z,8.73
2022-12-27T03:58:23.715Z,8.75
2022-12-27T04:00:50.116Z,8.76
2022-12-27T04:03:18.263Z,8.81
2022-12-27T04:05:44.769Z,8.84
2022-12-27T04:08:11.309Z,8.84
2022-12-27T04:10:37.966Z,8.87
2022-12-27T04:13:04.353Z,8.89
2022-12-27T04:15:31.199Z,8.88
2022-12-27T04:17:57.685Z,8.89
2022-12-27T04:20:24.814Z,8.87
2022-12-27T04:22:51.306Z,8.87
2022-12-27T04:25:17.772Z,8.86
2022-12-27T04:27:44.212Z,8.84
2022-12-27T04:30:11.711Z,8.82
2022-12-27T04:32:38.351Z,8.79
2022-12-27T04:35:05.503Z,8.78
2022-12-27T04:37:32.149Z,8.75
2022-12-27T04:39:58.843Z,8.75
2022-12-27T04:42:25.335Z,8.75
2022-12-27T04:44:51.888Z,8.73
2022-12-27T04:47:22.095Z,8.74
2022-12-27T04:49:48.782Z,8.68
2022-12-27T04:52:18.010Z,8.52
2022-12-27T04:54:44.588Z,8.35
2022-12-27T04:57:11.109Z,8.17
2022-12-27T04:59:37.647Z,7.97
2022-12-27T05:02:04.378Z,7.83
2022-12-27T05:04:35.227Z,7.67
2022-12-27T05:07:02.253Z,7.56
2022-12-27T05:09:28.813Z,7.48
2022-12-27T05:11:55.450Z,7.43
2022-12-27T05:14:21.905Z,7.34
2022-12-27T05:16:48.376Z,7.23
2022-12-27T05:19:15.041Z,7.13
2022-12-27T05:21:44.452Z,7.07
2022-12-27T05:24:10.919Z,7.04
2022-12-27T05:26:38.044Z,7.03
2022-12-27T05:29:06.653Z,7.02
2022-12-27T05:31:33.684Z,7.04
2022-12-27T05:34:00.290Z,7.09
2022-12-27T05:36:27.417Z,7.09
2022-12-27T05:38:53.951Z,6.99
2022-12-27T05:41:20.491Z,6.90
2022-12-27T05:43:47.014Z,6.83
2022-12-27T05:46:18.883Z,6.79
2022-12-27T05:48:46.861Z,6.73
2022-12-27T05:51:16.448Z,6.66
2022-12-27T05:53:43.721Z,6.60
2022-12-27T05:56:15.258Z,6.57
2022-12-27T05:58:42.650Z,6.52
2022-12-27T06:01:11.583Z,6.45
2022-12-27T06:03:38.818Z,6.39
2022-12-27T06:06:07.937Z,6.33
2022-12-27T06:08:35.605Z,6.27
2022-12-27T06:11:14.415Z,6.21
2022-12-27T06:13:42.569Z,6.17
2022-12-27T06:16:11.682Z,6.16
2022-12-27T06:18:40.263Z,6.18
2022-12-27T06:21:12.549Z,6.22
2022-12-27T06:23:41.822Z,6.22
2022-12-27T06:26:12.675Z,6.21
2022-12-27T06:28:39.219Z,5.98
2022-12-27T06:31:05.850Z,5.74
2022-12-27T06:33:33.171Z,5.55
2022-12-27T06:35:59.602Z,5.36
2022-12-27T06:38:26.095Z,5.18
2022-12-27T06:40:52.584Z,5.06
2022-12-27T06:43:19.068Z,4.93
2022-12-27T06:45:45.517Z,4.83
2022-12-27T06:48:12.262Z,4.71
2022-12-27T06:50:38.667Z,4.63
2022-12-27T06:53:05.073Z,4.53
2022-12-27T06:55:31.575Z,4.45
2022-12-27T06:57:58.012Z,4.39
2022-12-27T07:00:24.444Z,4.35
2022-12-27T07:02:51.139Z,4.33
2022-12-27T07:05:17.729Z,4.36
2022-12-27T07:07:44.273Z,4.40
2022-12-27T07:10:10.812Z,4.44
2022-12-27T07:12:37.356Z,4.44
2022-12-27T07:15:06.324Z,4.44
2022-12-27T07:17:34.959Z,4.43
2022-12-27T07:20:02.299Z,4.42
2022-12-27T07:22:28.695Z,4.43
2022-12-27T07:24:55.280Z,4.44
2022-12-27T07:27:21.669Z,4.50
2022-12-27T07:29:48.345Z,4.53
2022-12-27T07:32:15.102Z,4.57
2022-12-27T07:34:41.844Z,4.60
2022-12-27T07:37:08.573Z,4.59
2022-12-27T07:39:35.375Z,4.60
2022-12-27T07:42:07.789Z,4.58
2022-12-27T07:44:34.864Z,4.53
2022-12-27T07:47:01.287Z,4.26
2022-12-27T07:49:27.946Z,3.98
2022-12-27T07:51:54.384Z,3.88
2022-12-27T07:54:21.075Z,3.89
2022-12-27T07:56:47.569Z,3.89
2022-12-27T07:59:14.219Z,3.86
2022-12-27T08:01:40.797Z,3.80
2022-12-27T08:04:07.363Z,3.69
2022-12-27T08:06:35.107Z,3.60
2022-12-27T08:09:06.465Z,3.50
2022-12-27T08:11:32.954Z,3.38
2022-12-27T08:13:59.368Z,3.31
2022-12-27T08:16:26.838Z,3.28
2022-12-27T08:18:53.550Z,3.24
2022-12-27T08:21:20.101Z,3.21
2022-12-27T08:23:46.764Z,3.18
2022-12-27T08:26:13.290Z,3.15
2022-12-27T08:28:40.081Z,3.11
2022-12-27T08:31:08.964Z,3.11
2022-12-27T08:33:37.192Z,3.11
2022-12-27T08:36:22.323Z,3.13
2022-12-27T08:38:54.161Z,3.14
2022-12-27T08:41:21.440Z,3.14
2022-12-27T08:43:47.889Z,3.16
2022-12-27T08:46:14.400Z,3.17
2022-12-27T08:48:40.984Z,3.19
2022-12-27T08:51:12.599Z,3.21
2022-12-27T08:53:41.192Z,3.26
2022-12-27T08:56:07.931Z,3.29
2022-12-27T08:58:34.411Z,3.30
2022-12-27T09:01:08.279Z,3.31
2022-12-27T09:03:35.327Z,3.31
2022-12-27T09:06:13.280Z,3.31
2022-12-27T09:08:41.724Z,3.34
2022-12-27T09:11:11.054Z,3.37
2022-12-27T09:13:37.896Z,3.43
2022-12-27T09:16:10.256Z,3.44
2022-12-27T09:18:38.460Z,3.49
2022-12-27T09:21:11.057Z,3.51
2022-12-27T09:23:38.250Z,3.56
2022-12-27T09:26:06.007Z,3.64
2022-12-27T09:28:32.609Z,3.74
2022-12-27T09:30:59.195Z,3.82
2022-12-27T09:33:25.722Z,3.79
2022-12-27T09:35:52.629Z,3.77
2022-12-27T09:38:19.277Z,3.73
2022-12-27T09:40:55.323Z,3.74
2022-12-27T09:43:39.501Z,3.76
2022-12-27T09:46:13.138Z,3.78
2022-12-27T09:48:40.659Z,3.80
2022-12-27T09:51:18.053Z,3.80
2022-12-27T09:54:09.694Z,3.80
2022-12-27T09:57:09.675Z,3.84
2022-12-27T09:59:28.980Z,3.88
2022-12-27T10:01:55.583Z,3.96
2022-12-27T10:04:22.320Z,3.99
2022-12-27T10:06:48.919Z,4.07
2022-12-27T10:09:21.076Z,4.13
2022-12-27T10:11:58.574Z,4.17
2022-12-27T10:14:28.084Z,4.20
2022-12-27T10:17:02.916Z,4.20
2022-12-27T10:19:38.792Z,4.19
2022-12-27T10:22:24.641Z,4.14
2022-12-27T10:24:56.466Z,4.15
2022-12-27T10:27:26.246Z,4.20
2022-12-27T10:29:55.482Z,4.30
2022-12-27T10:32:22.544Z,4.44
2022-12-27T10:34:55.762Z,4.52
2022-12-27T10:37:22.839Z,4.55
2022-12-27T10:39:49.252Z,4.58
2022-12-27T10:42:35.504Z,4.53
2022-12-27T10:45:31.399Z,4.42
2022-12-27T10:48:15.238Z,4.29
2022-12-27T10:50:48.665Z,4.16
2022-12-27T10:53:30.310Z,4.04
2022-12-27T10:56:10.045Z,3.86
2022-12-27T10:59:19.656Z,3.77
2022-12-27T11:01:48.668Z,3.68
2022-12-27T11:04:21.062Z,3.68
2022-12-27T11:07:12.352Z,3.64
2022-12-27T11:09:43.490Z,3.64
2022-12-27T11:12:24.071Z,3.62
2022-12-27T11:15:00.212Z,3.68
2022-12-27T11:17:35.681Z,3.86
2022-12-27T11:20:19.601Z,3.99
2022-12-27T11:22:54.337Z,4.10
2022-12-27T11:25:21.681Z,4.16
2022-12-27T11:27:51.928Z,4.23
2022-12-27T11:30:34.992Z,4.25
2022-12-27T11:33:39.221Z,4.18
2022-12-27T11:36:09.059Z,4.07
2022-12-27T11:38:38.403Z,3.99
2022-12-27T11:41:20.874Z,3.94
2022-12-27T11:44:00.213Z,3.94
2022-12-27T11:47:04.776Z,3.95
2022-12-27T11:49:37.079Z,3.94
2022-12-27T11:52:22.154Z,3.93
2022-12-27T11:55:17.350Z,3.92
2022-12-27T11:58:25.302Z,3.93
2022-12-27T12:01:14.382Z,3.96
2022-12-27T12:04:17.950Z,4.04
2022-12-27T12:07:21.854Z,4.14
2022-12-27T12:10:06.436Z,4.24
2022-12-27T12:13:03.785Z,4.33
2022-12-27T12:15:36.699Z,4.49
2022-12-27T12:18:18.051Z,4.62
2022-12-27T12:21:09.301Z,4.69
2022-12-27T12:23:54.049Z,4.79
2022-12-27T12:26:23.293Z,4.92
2022-12-27T12:29:15.417Z,5.12
2022-12-27T12:32:05.223Z,5.26
2022-12-27T12:34:50.678Z,5.29
2022-12-27T12:37:45.261Z,5.30
2022-12-27T12:40:38.544Z,5.21
2022-12-27T12:43:26.999Z,5.14
2022-12-27T12:46:30.915Z,5.11
2022-12-27T12:49:15.390Z,5.15
2022-12-27T12:52:25.301Z,5.19
2022-12-27T12:54:57.545Z,5.18
2022-12-27T12:57:42.906Z,5.21
2022-12-27T13:00:24.479Z,5.27
2022-12-27T13:03:03.023Z,5.30
2022-12-27T13:05:45.168Z,5.35
2022-12-27T13:08:32.735Z,5.29
2022-12-27T13:11:27.105Z,5.24
2022-12-27T13:14:12.105Z,5.27
2022-12-27T13:16:59.487Z,5.24
2022-12-27T13:19:50.229Z,5.13
2022-12-27T13:22:23.365Z,5.02
2022-12-27T13:25:17.053Z,4.91
2022-12-27T13:28:28.820Z,4.83
2022-12-27T13:31:22.420Z,4.75
2022-12-27T13:34:10.559Z,4.70
2022-12-27T13:37:11.413Z,4.60
2022-12-27T13:39:43.816Z,4.58
2022-12-27T13:42:43.061Z,4.57
2022-12-27T13:45:23.299Z,4.57
2022-12-27T13:47:55.908Z,4.56
2022-12-27T13:50:34.584Z,4.53
2022-12-27T13:53:22.076Z,4.47
2022-12-27T13:56:27.254Z,4.47
2022-12-27T13:59:13.840Z,4.46
2022-12-27T14:02:06.380Z,4.46
2022-12-27T14:05:09.474Z,4.43
2022-12-27T14:07:46.878Z,4.37
2022-12-27T14:10:19.519Z,4.35
2022-12-27T14:13:03.668Z,4.33
2022-12-27T14:15:49.839Z,4.32
2022-12-27T14:18:42.568Z,4.30
2022-12-27T14:21:44.552Z,4.27
2022-12-27T14:24:37.054Z,4.21
2022-12-27T14:27:09.330Z,4.19
2022-12-27T14:29:57.613Z,4.18
2022-12-27T14:32:49.156Z,4.17
2022-12-27T14:35:30.641Z,4.14
2022-12-27T14:38:15.850Z,4.11
2022-12-27T14:41:07.978Z,4.05
2022-12-27T14:43:49.657Z,4.01
2022-12-27T14:46:36.513Z,3.98
2022-12-27T14:49:33.842Z,3.95
2022-12-27T14:52:31.251Z,3.92
2022-12-27T14:55:25.306Z,3.91
2022-12-27T14:58:02.577Z,3.89
2022-12-27T15:00:59.708Z,3.87
2022-12-27T15:04:03.804Z,3.84
2022-12-27T15:06:47.498Z,3.82
2022-12-27T15:09:16.662Z,3.84
2022-12-27T15:11:51.942Z,3.84
2022-12-27T15:14:28.319Z,3.83
2022-12-27T15:17:12.982Z,3.83
2022-12-27T15:20:14.457Z,3.80
2022-12-27T15:22:57.513Z,3.77
2022-12-27T15:25:30.344Z,3.75
2022-12-27T15:28:32.842Z,3.73
2022-12-27T15:31:26.860Z,3.70
2022-12-27T15:34:30.544Z,3.69
2022-12-27T15:36:57.499Z,3.68
2022-12-27T15:39:32.997Z,3.70
2022-12-27T15:42:02.226Z,3.71
2022-12-27T15:45:04.227Z,3.70
2022-12-27T15:47:46.202Z,3.70
2022-12-27T15:50:15.529Z,3.69
2022-12-27T15:52:54.360Z,3.69
2022-12-27T15:55:54.795Z,3.67
2022-12-27T15:58:25.326Z,3.67
2022-12-27T16:01:22.172Z,3.66
2022-12-27T16:03:53.223Z,3.66
2022-12-27T16:06:35.001Z,3.64
2022-12-27T16:09:23.301Z,3.63
2022-12-27T16:12:02.629Z,3.63
2022-12-27T16:14:32.053Z,3.64
2022-12-27T16:17:07.158Z,3.64
2022-12-27T16:19:46.433Z,3.64
2022-12-27T16:22:26.840Z,3.63
2022-12-27T16:24:53.818Z,3.63
2022-12-27T16:27:29.984Z,3.62
2022-12-27T16:29:58.243Z,3.60
2022-12-27T16:32:27.493Z,3.57
2022-12-27T16:35:09.983Z,3.55
2022-12-27T16:37:45.748Z,3.52
2022-12-27T16:40:30.685Z,3.50
2022-12-27T16:42:57.149Z,3.49
2022-12-27T16:45:43.652Z,3.46
2022-12-27T16:48:40.727Z,3.47
2022-12-27T16:51:17.392Z,3.47
2022-12-27T16:54:00.526Z,3.47
2022-12-27T16:56:29.941Z,3.49
2022-12-27T16:58:57.438Z,3.51
2022-12-27T17:01:36.248Z,3.53
2022-12-27T17:04:03.763Z,3.54
2022-12-27T17:06:33.268Z,3.55
2022-12-27T17:09:09.778Z,3.57
2022-12-27T17:11:56.523Z,3.59
2022-12-27T17:14:31.609Z,3.59
2022-12-27T17:17:25.093Z,3.58
2022-12-27T17:20:02.218Z,3.57
2022-12-27T17:22:34.980Z,3.55
2022-12-27T17:25:15.084Z,3.50
2022-12-27T17:27:56.088Z,3.45
2022-12-27T17:30:26.220Z,3.38
2022-12-27T17:33:09.426Z,3.33
2022-12-27T17:35:54.213Z,3.26
2022-12-27T17:38:38.877Z,3.18
2022-12-27T17:41:47.093Z,3.10
2022-12-27T17:44:37.936Z,3.02
2022-12-27T17:47:16.067Z,2.98
2022-12-27T17:49:43.098Z,2.94
2022-12-27T17:52:16.999Z,2.92
2022-12-27T17:54:43.528Z,2.90
2022-12-27T17:57:15.308Z,2.89
2022-12-27T17:59:47.092Z,2.89
2022-12-27T18:02:24.816Z,2.88
2022-12-27T18:04:54.643Z,2.89
2022-12-27T18:07:27.545Z,2.91
2022-12-27T18:10:26.639Z,2.92
2022-12-27T18:12:55.958Z,2.93
2022-12-27T18:15:24.957Z,2.95
2022-12-27T18:17:58.287Z,2.97
2022-12-27T18:20:27.461Z,2.98
2022-12-27T18:23:02.854Z,3.00
2022-12-27T18:25:34.016Z,3.01
2022-12-27T18:28:03.573Z,3.04
2022-12-27T18:30:37.477Z,3.07
2022-12-27T18:33:04.843Z,3.09
2022-12-27T18:35:31.594Z,3.11
2022-12-27T18:37:58.010Z,3.11
2022-12-27T18:40:25.689Z,3.12
2022-12-27T18:42:53.765Z,3.15
2022-12-27T18:45:27.870Z,3.17
2022-12-27T18:47:57.175Z,3.18
2022-12-27T18:50:30.196Z,3.19
2022-12-27T18:53:02.664Z,3.19
2022-12-27T18:55:29.472Z,3.20
2022-12-27T18:58:06.530Z,3.23
2022-12-27T19:00:48.116Z,3.26
2022-12-27T19:03:16.001Z,3.26
2022-12-27T19:06:13.186Z,3.27
2022-12-27T19:08:51.440Z,3.27
2022-12-27T19:11:24.809Z,3.25
2022-12-27T19:13:58.244Z,3.26
2022-12-27T19:16:31.308Z,3.27
2022-12-27T19:19:26.411Z,3.27
2022-12-27T19:21:53.603Z,3.28
2022-12-27T19:24:32.740Z,3.30
2022-12-27T19:27:16.275Z,3.35
2022-12-27T19:29:50.900Z,3.37
2022-12-27T19:32:24.098Z,3.37
2022-12-27T19:34:53.712Z,3.39
2022-12-27T19:37:20.747Z,3.43
2022-12-27T19:39:48.366Z,3.45
2022-12-27T19:42:18.474Z,3.44
2022-12-27T19:44:44.991Z,3.45
2022-12-27T19:47:14.704Z,3.44
2022-12-27T19:49:43.377Z,3.41
2022-12-27T19:52:26.444Z,3.40
2022-12-27T19:55:00.762Z,3.39
2022-12-27T19:57:27.285Z,3.38
2022-12-27T19:59:53.749Z,3.37
2022-12-27T20:02:20.465Z,3.36
2022-12-27T20:04:47.482Z,3.34
2022-12-27T20:07:21.466Z,3.32
2022-12-27T20:09:48.092Z,3.30
2022-12-27T20:12:16.202Z,3.27
2022-12-27T20:14:42.938Z,3.23
2022-12-27T20:17:09.431Z,3.20
2022-12-27T20:19:35.816Z,3.18
2022-12-27T20:22:02.254Z,3.13
2022-12-27T20:24:28.980Z,3.08
2022-12-27T20:26:55.414Z,3.02
2022-12-27T20:29:21.897Z,2.98
2022-12-27T20:31:48.812Z,2.94
2022-12-27T20:34:15.746Z,2.91
2022-12-27T20:36:42.726Z,2.89
2022-12-27T20:39:09.224Z,2.86
2022-12-27T20:41:36.063Z,2.83
2022-12-27T20:44:03.259Z,2.81
2022-12-27T20:46:29.724Z,2.76
2022-12-27T20:48:56.815Z,2.71
2022-12-27T20:51:28.377Z,2.70
2022-12-27T20:53:56.786Z,2.68
2022-12-27T20:56:23.443Z,2.65
2022-12-27T20:58:49.971Z,2.64
2022-12-27T21:01:19.696Z,2.61
2022-12-27T21:03:46.998Z,2.60
2022-12-27T21:06:16.957Z,2.59
2022-12-27T21:08:49.173Z,2.57
2022-12-27T21:11:23.437Z,2.52
2022-12-27T21:13:50.772Z,2.46
2022-12-27T21:16:23.396Z,2.41
2022-12-27T21:18:50.299Z,2.37
2022-12-27T21:21:20.741Z,2.32
2022-12-27T21:23:49.988Z,2.27
2022-12-27T21:26:23.052Z,2.19
2022-12-27T21:28:49.973Z,2.13
2022-12-27T21:31:19.459Z,2.09
2022-12-27T21:33:47.575Z,2.09
2022-12-27T21:36:20.337Z,2.09
2022-12-27T21:38:47.793Z,2.07
2022-12-27T21:41:15.890Z,2.06
2022-12-27T21:43:43.680Z,2.06
2022-12-27T21:46:16.223Z,2.07
2022-12-27T21:48:43.343Z,2.04
2022-12-27T21:51:18.642Z,1.99
2022-12-27T21:53:45.712Z,1.97
2022-12-27T21:56:14.057Z,1.93
2022-12-27T21:58:42.273Z,1.90
2022-12-27T22:01:16.350Z,1.87
2022-12-27T22:03:45.400Z,1.86
2022-12-27T22:06:13.542Z,1.86
2022-12-27T22:08:41.337Z,1.87
2022-12-27T22:11:07.799Z,1.89
2022-12-27T22:13:34.503Z,1.93
2022-12-27T22:16:03.962Z,2.00
2022-12-27T22:18:32.495Z,2.05
2022-12-27T22:21:05.201Z,2.08
2022-12-27T22:23:36.963Z,2.12
2022-12-27T22:26:04.523Z,2.14
2022-12-27T22:28:31.471Z,2.13
2022-12-27T22:30:58.023Z,2.12
2022-12-27T22:33:24.450Z,2.12
2022-12-27T22:35:50.865Z,2.10
2022-12-27T22:38:17.317Z,2.09
2022-12-27T22:40:46.544Z,2.09
2022-12-27T22:43:13.886Z,2.08
2022-12-27T22:45:41.548Z,2.11
2022-12-27T22:48:07.991Z,2.11
2022-12-27T22:50:34.528Z,2.10
2022-12-27T22:53:00.963Z,2.09
2022-12-27T22:55:27.507Z,2.08
2022-12-27T22:57:53.899Z,2.07
2022-12-27T23:00:20.490Z,2.05
2022-12-27T23:02:47.058Z,2.03
2022-12-27T23:05:13.673Z,2.00
2022-12-27T23:08:04.062Z,1.98
2022-12-27T23:10:26.518Z,1.93
2022-12-27T23:12:52.974Z,1.89
2022-12-27T23:15:19.591Z,1.85
2022-12-27T23:17:46.002Z,1.84
2022-12-27T23:20:12.662Z,1.84
2022-12-27T23:22:39.071Z,1.84
2022-12-27T23:25:05.751Z,1.83
2022-12-27T23:27:32.207Z,1.82
2022-12-27T23:29:58.603Z,1.80
2022-12-27T23:32:25.161Z,1.77
2022-12-27T23:34:51.581Z,1.72
2022-12-27T23:37:18.247Z,1.68
2022-12-27T23:39:44.778Z,1.62
2022-12-27T23:42:11.193Z,1.59
2022-12-27T23:44:37.649Z,1.55
2022-12-27T23:47:05.619Z,1.52
2022-12-27T23:49:32.778Z,1.48
2022-12-27T23:51:59.222Z,1.44
2022-12-27T23:54:25.694Z,1.40
2022-12-27T23:56:52.246Z,1.37
2022-12-27T23:59:18.954Z,1.33
